Time;durP1;ratioP1;P1;durP2;ratioP2;P2;SDS_P1;SDS_P2;PMS_P1;PMS_P2;Temp;Humidity;BMP_temperature;BMP_pressure;BME280_temperature;BME280_humidity;BME280_pressure;Samples;Min_cycle;Max_cycle;Signal;HPM_P1;HPM_P2
2021/12/20 00:00:28;;;;;;;24.10;10.93;;;11.10;82.20;;;;;;4951015;28;20243;-84
2021/12/20 00:02:58;;;;;;;41.30;13.50;;;11.10;82.20;;;;;;4950311;28;20239;-84
2021/12/20 00:05:26;;;;;;;28.53;14.03;;;11.10;82.00;;;;;;4942720;28;20203;-83
2021/12/20 00:07:53;;;;;;;32.17;14.13;;;11.10;82.10;;;;;;4950487;28;20199;-82
2021/12/20 00:10:20;;;;;;;30.73;13.43;;;11.10;82.10;;;;;;4951403;28;20690;-83
2021/12/20 00:12:49;;;;;;;31.70;16.00;;;11.10;82.00;;;;;;4949742;28;20282;-82
2021/12/20 00:15:18;;;;;;;29.17;14.00;;;11.10;81.80;;;;;;4949342;28;20323;-82
2021/12/20 00:17:45;;;;;;;34.27;11.90;;;11.10;81.80;;;;;;4950396;28;20716;-82
2021/12/20 00:20:13;;;;;;;36.93;14.20;;;11.10;81.80;;;;;;4949626;28;20306;-83
2021/12/20 00:22:40;;;;;;;29.60;12.33;;;11.10;81.80;;;;;;4950920;28;20333;-83
2021/12/20 00:25:08;;;;;;;28.17;12.67;;;11.10;81.70;;;;;;4950689;28;20207;-82
2021/12/20 00:27:35;;;;;;;27.20;11.03;;;11.00;81.60;;;;;;4950591;28;20203;-82
2021/12/20 00:30:05;;;;;;;34.60;11.70;;;11.00;81.60;;;;;;4950252;28;20222;-82
2021/12/20 00:32:32;;;;;;;25.33;12.17;;;11.00;81.50;;;;;;4950219;28;20278;-82
2021/12/20 00:34:59;;;;;;;33.93;13.33;;;11.00;81.50;;;;;;4950563;28;20230;-82
2021/12/20 00:40:23;;;;;;;30.40;11.00;;;11.00;81.50;;;;;;4929681;28;20230;-82
2021/12/20 00:42:51;;;;;;;30.43;12.97;;;11.00;81.50;;;;;;4949845;28;20238;-83
2021/12/20 00:45:21;;;;;;;30.90;12.33;;;11.00;81.50;;;;;;4950425;28;20287;-83
2021/12/20 00:47:48;;;;;;;47.03;13.80;;;11.00;81.50;;;;;;4949985;28;20870;-83
2021/12/20 00:50:18;;;;;;;19.67;12.20;;;11.00;81.50;;;;;;4950632;28;20290;-82
2021/12/20 00:52:45;;;;;;;30.67;11.43;;;11.00;81.40;;;;;;4950324;28;20208;-82
2021/12/20 00:55:15;;;;;;;32.97;12.33;;;10.90;81.40;;;;;;4949937;28;20321;-83
2021/12/20 00:57:42;;;;;;;38.87;12.30;;;11.00;81.50;;;;;;4950020;28;20207;-81
2021/12/20 01:00:11;;;;;;;25.50;13.87;;;10.90;81.30;;;;;;4950168;28;20318;-83
2021/12/20 01:02:39;;;;;;;39.43;13.63;;;10.90;81.20;;;;;;4949979;28;20615;-84
2021/12/20 01:05:07;;;;;;;47.53;14.97;;;10.90;81.20;;;;;;4947445;28;20214;-84
2021/12/20 01:07:34;;;;;;;30.07;11.83;;;10.90;81.40;;;;;;4949872;28;20711;-83
2021/12/20 01:10:02;;;;;;;39.90;13.20;;;10.90;81.40;;;;;;4949932;28;20223;-83
2021/12/20 01:12:34;;;;;;;29.53;14.07;;;10.90;81.50;;;;;;4949671;28;20227;-83
2021/12/20 01:15:02;;;;;;;29.27;13.17;;;10.90;81.50;;;;;;4949942;28;20245;-83
2021/12/20 01:17:30;;;;;;;24.83;11.67;;;10.90;81.60;;;;;;4949727;28;20195;-83
2021/12/20 01:19:58;;;;;;;38.50;13.07;;;10.90;81.60;;;;;;4950038;28;20237;-83
2021/12/20 01:22:25;;;;;;;23.17;10.47;;;10.90;81.70;;;;;;4949640;28;20203;-82
2021/12/20 01:24:52;;;;;;;24.40;14.47;;;10.90;81.80;;;;;;4950172;28;20755;-82
2021/12/20 01:27:19;;;;;;;31.23;12.10;;;10.90;81.80;;;;;;4951756;28;20315;-86
2021/12/20 01:29:46;;;;;;;38.50;14.50;;;10.90;81.80;;;;;;4953805;28;20326;-82
2021/12/20 01:32:13;;;;;;;31.40;11.70;;;10.90;82.00;;;;;;4953540;28;20314;-83
2021/12/20 01:34:40;;;;;;;30.23;13.40;;;10.90;82.00;;;;;;4953788;28;20323;-82
2021/12/20 01:37:08;;;;;;;25.03;11.83;;;10.90;82.10;;;;;;4952753;28;20210;-82
2021/12/20 01:39:35;;;;;;;28.43;12.87;;;10.90;81.90;;;;;;4953374;28;20322;-83
2021/12/20 01:42:04;;;;;;;33.40;12.47;;;10.90;81.80;;;;;;4952898;28;20203;-81
2021/12/20 01:44:31;;;;;;;31.43;13.03;;;10.80;81.70;;;;;;4951887;28;20282;-82
2021/12/20 01:47:01;;;;;;;32.00;13.63;;;10.80;81.70;;;;;;4953145;29;20199;-82
2021/12/20 01:49:30;;;;;;;30.73;11.47;;;10.80;81.70;;;;;;4953322;28;20916;-82
2021/12/20 01:52:04;;;;;;;23.70;11.10;;;10.80;81.60;;;;;;4953904;28;20266;-82
2021/12/20 01:54:33;;;;;;;22.93;13.33;;;10.80;81.70;;;;;;4953006;28;20203;-82
2021/12/20 01:57:00;;;;;;;31.80;13.73;;;10.80;81.60;;;;;;4953337;28;20991;-82
2021/12/20 01:59:28;;;;;;;29.27;11.97;;;10.80;81.60;;;;;;4951346;28;20294;-83
2021/12/20 02:01:55;;;;;;;32.90;11.83;;;10.80;81.60;;;;;;4952783;28;20247;-82
2021/12/20 02:04:22;;;;;;;30.67;13.63;;;10.80;81.60;;;;;;4943388;28;20615;-84
2021/12/20 02:06:51;;;;;;;32.70;11.93;;;10.80;81.70;;;;;;4939444;29;20215;-86
2021/12/20 02:09:20;;;;;;;28.00;11.50;;;10.80;81.70;;;;;;4934289;29;20307;-83
2021/12/20 02:11:50;;;;;;;32.77;14.73;;;10.80;81.70;;;;;;4953227;28;20286;-84
2021/12/20 02:14:19;;;;;;;20.07;13.63;;;10.80;81.80;;;;;;4953295;29;20292;-84
2021/12/20 02:16:46;;;;;;;24.60;11.80;;;10.80;81.80;;;;;;4952865;28;20266;-84
2021/12/20 02:19:16;;;;;;;29.33;12.27;;;10.80;81.90;;;;;;4953197;28;20219;-83
2021/12/20 02:21:45;;;;;;;29.17;13.20;;;10.70;81.80;;;;;;4952965;28;20723;-86
2021/12/20 02:24:12;;;;;;;32.50;11.63;;;10.80;82.00;;;;;;4952956;28;20251;-85
2021/12/20 02:26:39;;;;;;;29.93;11.83;;;10.70;82.00;;;;;;4952894;28;20311;-83
2021/12/20 02:29:08;;;;;;;26.20;11.43;;;10.70;82.10;;;;;;4952848;28;20768;-84
2021/12/20 02:39:48;;;;;;;87.53;18.57;;;10.70;82.10;;;;;;4946543;28;21025;-83
2021/12/20 02:42:20;;;;;;;30.60;12.57;;;10.70;82.10;;;;;;4951118;28;20664;-84
2021/12/20 02:44:52;;;;;;;46.00;15.27;;;10.70;82.10;;;;;;4951497;28;20204;-83
2021/12/20 02:47:28;;;;;;;32.43;13.43;;;10.80;82.20;;;;;;4952375;28;20211;-86
2021/12/20 02:49:56;;;;;;;28.67;11.13;;;10.70;82.10;;;;;;4953602;28;20223;-84
2021/12/20 02:52:25;;;;;;;22.73;10.47;;;10.80;82.20;;;;;;4954175;28;20966;-85
2021/12/20 02:54:52;;;;;;;29.77;12.87;;;10.80;82.20;;;;;;4952638;28;20286;-86
2021/12/20 02:57:20;;;;;;;53.37;14.80;;;10.80;82.20;;;;;;4951326;28;20238;-84
2021/12/20 02:59:46;;;;;;;46.77;15.30;;;10.80;82.20;;;;;;4951506;28;20338;-84
2021/12/20 03:02:14;;;;;;;23.40;10.40;;;10.80;82.20;;;;;;4952548;28;20294;-83
2021/12/20 03:04:41;;;;;;;30.60;13.53;;;10.70;82.10;;;;;;4952137;28;20291;-83
2021/12/20 03:07:11;;;;;;;27.23;12.30;;;10.80;83.00;;;;;;4952143;29;20254;-84
2021/12/20 03:09:44;;;;;;;43.10;13.73;;;10.80;83.00;;;;;;4951303;28;20696;-86
2021/12/20 03:12:13;;;;;;;27.93;11.50;;;10.80;82.20;;;;;;4951291;28;20777;-83
2021/12/20 03:14:43;;;;;;;36.97;13.50;;;10.80;82.20;;;;;;4952011;28;20200;-84
2021/12/20 03:17:11;;;;;;;25.27;13.63;;;10.80;82.20;;;;;;4951776;28;20211;-84
2021/12/20 03:19:39;;;;;;;31.33;12.70;;;10.80;82.20;;;;;;4951700;28;20318;-84
2021/12/20 03:22:08;;;;;;;25.50;13.37;;;10.80;82.10;;;;;;4951201;28;20299;-84
2021/12/20 03:24:35;;;;;;;28.50;10.63;;;10.80;82.00;;;;;;4951451;28;20270;-83
2021/12/20 03:27:04;;;;;;;34.27;11.93;;;10.80;82.00;;;;;;4951347;28;20238;-83
2021/12/20 03:29:31;;;;;;;29.93;11.37;;;10.80;81.90;;;;;;4951276;28;20306;-83
2021/12/20 03:31:58;;;;;;;28.87;11.63;;;10.80;81.80;;;;;;4951144;28;20302;-83
2021/12/20 03:34:25;;;;;;;30.83;12.63;;;10.80;81.70;;;;;;4951247;28;20246;-82
2021/12/20 03:36:52;;;;;;;26.63;12.17;;;10.80;81.70;;;;;;4951600;28;20294;-82
2021/12/20 03:39:19;;;;;;;33.53;14.10;;;10.80;81.60;;;;;;4951103;28;20311;-83
2021/12/20 03:41:46;;;;;;;46.20;14.37;;;10.80;81.50;;;;;;4951275;28;20893;-82
2021/12/20 03:44:15;;;;;;;32.83;10.73;;;10.80;81.50;;;;;;4951090;29;20286;-82
2021/12/20 03:46:42;;;;;;;31.13;12.73;;;10.80;81.50;;;;;;4950424;28;20207;-83
2021/12/20 03:49:09;;;;;;;31.60;11.53;;;10.80;81.40;;;;;;4950989;28;20417;-82
2021/12/20 03:51:37;;;;;;;28.60;14.23;;;10.80;81.20;;;;;;4948961;28;20653;-83
2021/12/20 03:54:05;;;;;;;35.30;12.77;;;10.80;81.10;;;;;;4950818;28;20312;-83
2021/12/20 03:56:32;;;;;;;24.67;10.37;;;10.80;81.10;;;;;;4950784;28;20246;-84
2021/12/20 03:58:59;;;;;;;28.40;12.13;;;10.80;81.20;;;;;;4951307;28;20318;-83
2021/12/20 04:01:27;;;;;;;26.30;10.93;;;10.80;81.40;;;;;;4950677;28;20711;-82
2021/12/20 04:03:57;;;;;;;24.93;12.27;;;10.80;81.20;;;;;;4951018;28;20238;-83
2021/12/20 04:06:24;;;;;;;32.13;11.87;;;10.80;81.20;;;;;;4949889;28;20202;-82
2021/12/20 04:08:51;;;;;;;35.03;12.60;;;10.80;81.10;;;;;;4951029;28;20315;-82
2021/12/20 04:11:18;;;;;;;25.87;10.63;;;10.70;81.10;;;;;;4954527;28;20290;-83
2021/12/20 04:13:45;;;;;;;29.30;14.00;;;10.70;81.20;;;;;;4950306;28;20326;-82
2021/12/20 04:16:12;;;;;;;31.93;14.83;;;10.70;81.10;;;;;;4950485;28;20234;-83
2021/12/20 04:18:40;;;;;;;29.00;12.37;;;10.70;81.10;;;;;;4950427;28;21093;-85
2021/12/20 04:21:09;;;;;;;46.57;12.37;;;10.70;81.00;;;;;;4949537;29;20634;-82
2021/12/20 04:23:36;;;;;;;29.23;11.07;;;10.70;81.00;;;;;;4950320;28;20203;-82
2021/12/20 04:26:03;;;;;;;25.60;12.67;;;10.70;81.10;;;;;;4950771;29;20204;-82
2021/12/20 04:28:30;;;;;;;24.67;13.33;;;10.70;81.10;;;;;;4950680;28;20670;-83
2021/12/20 04:30:57;;;;;;;26.90;12.70;;;10.70;81.10;;;;;;4950329;29;20623;-83
2021/12/20 04:33:24;;;;;;;24.30;11.83;;;10.70;81.20;;;;;;4947993;28;20294;-82
2021/12/20 04:35:53;;;;;;;33.13;12.03;;;10.70;81.10;;;;;;4950534;28;20270;-83
2021/12/20 04:38:20;;;;;;;27.93;12.20;;;10.70;81.00;;;;;;4950630;28;20263;-83
2021/12/20 04:40:47;;;;;;;35.27;14.33;;;10.70;81.00;;;;;;4949859;28;20199;-82
2021/12/20 04:43:14;;;;;;;31.17;11.60;;;10.70;80.90;;;;;;4949717;28;20299;-83
2021/12/20 04:45:41;;;;;;;22.80;12.60;;;10.70;80.90;;;;;;4949101;28;20298;-83
2021/12/20 04:48:09;;;;;;;28.50;12.17;;;10.70;80.80;;;;;;4949899;28;20877;-83
2021/12/20 04:50:36;;;;;;;29.63;11.67;;;10.70;80.70;;;;;;4950647;28;20690;-83
2021/12/20 04:53:05;;;;;;;31.70;11.60;;;10.70;80.60;;;;;;4949918;28;20231;-83
2021/12/20 04:55:32;;;;;;;29.43;12.27;;;10.70;80.50;;;;;;4949900;28;20625;-83
2021/12/20 04:58:00;;;;;;;22.27;11.77;;;10.60;80.40;;;;;;4949721;28;20210;-82
2021/12/20 05:00:32;;;;;;;27.37;12.43;;;10.60;80.40;;;;;;4949885;28;20236;-83
2021/12/20 05:02:59;;;;;;;40.03;11.73;;;10.70;80.20;;;;;;4949747;28;20204;-82
2021/12/20 05:05:28;;;;;;;29.33;14.63;;;10.70;80.20;;;;;;4949959;28;20294;-83
2021/12/20 05:07:55;;;;;;;29.93;13.37;;;10.60;80.00;;;;;;4949489;28;20204;-82
2021/12/20 05:10:31;;;;;;;37.60;13.03;;;10.60;79.70;;;;;;4947732;28;20192;-83
2021/12/20 05:13:00;;;;;;;28.33;14.20;;;10.60;79.30;;;;;;4943679;28;20650;-82
2021/12/20 05:15:28;;;;;;;37.53;13.40;;;10.60;79.30;;;;;;4949558;28;20293;-85
2021/12/20 05:17:55;;;;;;;42.77;14.37;;;10.60;79.60;;;;;;4949590;28;20544;-83
2021/12/20 05:20:22;;;;;;;31.10;12.20;;;10.60;79.60;;;;;;4950369;28;20229;-82
2021/12/20 05:22:50;;;;;;;26.83;11.60;;;10.50;79.40;;;;;;4949990;28;20295;-82
2021/12/20 05:25:17;;;;;;;30.10;12.27;;;10.50;79.50;;;;;;4950288;28;20294;-82
2021/12/20 05:27:46;;;;;;;31.67;11.47;;;10.50;79.50;;;;;;4949688;28;20958;-84
2021/12/20 05:30:15;;;;;;;28.57;12.37;;;10.50;79.50;;;;;;4949675;28;20712;-82
2021/12/20 05:32:42;;;;;;;32.07;12.60;;;10.60;79.60;;;;;;4949494;28;20201;-82
2021/12/20 05:35:12;;;;;;;25.37;10.67;;;10.50;79.50;;;;;;4949159;28;20210;-82
2021/12/20 05:37:39;;;;;;;29.27;11.83;;;10.50;79.60;;;;;;4948824;28;20223;-85
2021/12/20 05:40:09;;;;;;;29.00;13.03;;;10.50;79.60;;;;;;4947829;28;20230;-82
2021/12/20 05:42:36;;;;;;;27.43;13.00;;;10.50;79.60;;;;;;4949572;28;20931;-83
2021/12/20 05:45:06;;;;;;;33.93;12.90;;;10.50;79.60;;;;;;4949910;28;20261;-82
2021/12/20 05:47:34;;;;;;;28.87;14.70;;;10.50;79.40;;;;;;4950037;28;20203;-83
2021/12/20 05:50:00;;;;;;;28.87;12.20;;;10.50;79.50;;;;;;4949992;28;20263;-86
2021/12/20 05:52:28;;;;;;;32.77;13.17;;;10.50;79.50;;;;;;4949794;28;20283;-82
2021/12/20 05:54:54;;;;;;;32.80;12.93;;;10.50;79.60;;;;;;4949597;28;20298;-82
2021/12/20 05:57:21;;;;;;;33.40;13.53;;;10.50;79.50;;;;;;4948654;28;20318;-83
2021/12/20 05:59:48;;;;;;;37.17;12.93;;;10.50;79.50;;;;;;4949984;28;20316;-85
2021/12/20 06:02:17;;;;;;;35.17;14.23;;;10.50;79.50;;;;;;4948053;29;20291;-83
2021/12/20 06:04:49;;;;;;;32.43;12.70;;;10.50;79.50;;;;;;4937370;28;20298;-82
2021/12/20 06:07:15;;;;;;;29.93;14.00;;;10.50;79.50;;;;;;4949078;28;20246;-86
2021/12/20 06:09:42;;;;;;;37.53;13.33;;;10.50;79.40;;;;;;4948729;28;20302;-82
2021/12/20 06:12:10;;;;;;;31.67;13.30;;;10.50;79.30;;;;;;4949988;28;20868;-82
2021/12/20 06:14:37;;;;;;;32.40;12.97;;;10.50;79.30;;;;;;4951029;28;20283;-86
2021/12/20 06:17:04;;;;;;;23.00;12.33;;;10.50;79.20;;;;;;4953126;28;20788;-85
2021/12/20 06:19:33;;;;;;;29.17;14.03;;;10.50;79.20;;;;;;4952755;28;20230;-85
2021/12/20 06:22:00;;;;;;;36.87;14.37;;;10.50;79.20;;;;;;4952471;28;20291;-83
2021/12/20 06:24:27;;;;;;;29.77;12.33;;;10.50;79.10;;;;;;4951872;28;20814;-85
2021/12/20 06:26:53;;;;;;;33.00;12.97;;;10.50;79.10;;;;;;4951684;28;20698;-82
2021/12/20 06:29:20;;;;;;;52.30;13.87;;;10.50;79.10;;;;;;4951850;28;20270;-82
2021/12/20 06:31:47;;;;;;;32.17;12.83;;;10.50;79.20;;;;;;4952706;28;20290;-82
2021/12/20 06:34:14;;;;;;;37.27;14.17;;;10.50;79.00;;;;;;4951265;28;20258;-84
2021/12/20 06:36:43;;;;;;;41.43;13.27;;;10.40;78.70;;;;;;4951795;28;20322;-85
2021/12/20 06:39:10;;;;;;;33.83;12.27;;;10.50;78.70;;;;;;4952773;28;20314;-82
2021/12/20 06:41:38;;;;;;;34.23;14.20;;;10.50;78.70;;;;;;4952275;28;20202;-83
2021/12/20 06:44:06;;;;;;;27.77;12.00;;;10.40;78.60;;;;;;4952465;28;20286;-82
2021/12/20 06:46:37;;;;;;;35.23;12.63;;;10.50;78.80;;;;;;4951451;28;20612;-86
2021/12/20 06:49:05;;;;;;;32.97;13.50;;;10.40;78.70;;;;;;4951689;28;20225;-84
2021/12/20 06:51:33;;;;;;;44.97;14.37;;;10.40;78.70;;;;;;4951895;28;20196;-84
2021/12/20 06:54:02;;;;;;;35.97;12.37;;;10.40;78.80;;;;;;4952275;28;20258;-86
2021/12/20 06:56:29;;;;;;;29.83;13.67;;;10.40;78.70;;;;;;4952099;29;20321;-86
2021/12/20 06:58:56;;;;;;;34.10;12.67;;;10.40;78.90;;;;;;4951734;28;20219;-82
2021/12/20 07:01:23;;;;;;;37.83;12.30;;;10.40;79.00;;;;;;4950741;28;20313;-83
2021/12/20 07:03:50;;;;;;;34.80;13.67;;;10.40;79.00;;;;;;4951873;28;20743;-86
2021/12/20 07:06:17;;;;;;;23.13;13.23;;;10.40;79.00;;;;;;4952191;28;20221;-82
2021/12/20 07:08:44;;;;;;;40.20;12.40;;;10.40;79.10;;;;;;4951723;28;20766;-84
2021/12/20 07:11:13;;;;;;;17.03;12.43;;;10.40;79.10;;;;;;4953023;28;20263;-90
2021/12/20 07:13:40;;;;;;;31.97;15.47;;;10.40;79.10;;;;;;4952059;28;20238;-83
2021/12/20 07:16:07;;;;;;;33.93;12.27;;;10.40;79.10;;;;;;4948937;28;20210;-83
2021/12/20 07:18:35;;;;;;;37.50;12.50;;;10.40;78.90;;;;;;4951264;28;20611;-82
2021/12/20 07:21:03;;;;;;;55.43;14.37;;;10.40;78.80;;;;;;4950548;29;20196;-82
2021/12/20 07:23:30;;;;;;;26.57;12.20;;;10.40;78.90;;;;;;4950013;29;20633;-84
2021/12/20 07:25:57;;;;;;;31.70;15.03;;;10.40;78.90;;;;;;4950958;28;20234;-83
2021/12/20 07:28:25;;;;;;;26.40;12.60;;;10.40;78.90;;;;;;4950137;28;20309;-84
2021/12/20 07:30:52;;;;;;;29.70;13.10;;;10.40;79.00;;;;;;4951181;29;20303;-82
2021/12/20 07:33:19;;;;;;;36.63;12.47;;;10.40;79.00;;;;;;4949263;28;21005;-83
2021/12/20 07:35:46;;;;;;;29.77;12.17;;;10.40;79.00;;;;;;4952070;28;20246;-82
2021/12/20 07:38:14;;;;;;;32.67;13.63;;;10.40;79.00;;;;;;4950711;28;20238;-84
2021/12/20 07:40:44;;;;;;;34.87;15.90;;;10.40;78.80;;;;;;4968365;23;20235;-83
2021/12/20 07:43:11;;;;;;;29.67;13.63;;;10.30;78.70;;;;;;4951534;28;20235;-83
2021/12/20 07:45:40;;;;;;;38.77;16.07;;;10.40;79.10;;;;;;4950783;28;20236;-83
2021/12/20 07:48:07;;;;;;;41.30;16.73;;;10.30;78.90;;;;;;4950696;28;20305;-86
2021/12/20 07:50:34;;;;;;;48.50;15.47;;;10.30;79.00;;;;;;4950698;28;20207;-84
2021/12/20 07:53:01;;;;;;;35.43;15.53;;;10.30;79.10;;;;;;4937386;28;20314;-84
2021/12/20 07:55:28;;;;;;;33.90;16.27;;;10.30;79.00;;;;;;4932009;29;20290;-87
2021/12/20 07:57:55;;;;;;;36.80;15.10;;;10.30;79.00;;;;;;4931351;29;20231;-83
2021/12/20 08:00:22;;;;;;;43.00;15.00;;;10.30;79.00;;;;;;4931749;29;20650;-83
2021/12/20 08:02:51;;;;;;;41.67;16.50;;;10.30;79.00;;;;;;4931781;29;20310;-86
2021/12/20 08:05:19;;;;;;;32.03;12.80;;;10.30;79.10;;;;;;4932256;29;20823;-87
2021/12/20 08:07:50;;;;;;;32.20;15.53;;;10.30;79.20;;;;;;4931717;29;20737;-87
2021/12/20 08:10:18;;;;;;;46.30;15.80;;;10.30;79.20;;;;;;4938078;28;20266;-82
2021/12/20 08:12:45;;;;;;;29.33;13.57;;;10.30;79.20;;;;;;4950767;28;20215;-85
2021/12/20 08:15:13;;;;;;;36.53;15.53;;;10.30;79.20;;;;;;4950540;28;20270;-83
2021/12/20 08:17:40;;;;;;;39.67;15.07;;;10.30;79.10;;;;;;4950907;28;20239;-82
2021/12/20 08:20:12;;;;;;;32.73;14.47;;;10.30;79.20;;;;;;4950659;28;20322;-85
2021/12/20 08:22:40;;;;;;;40.40;14.27;;;10.30;79.10;;;;;;4949077;28;20296;-83
2021/12/20 08:25:07;;;;;;;31.67;14.10;;;10.30;79.20;;;;;;4950905;28;20206;-83
2021/12/20 08:27:35;;;;;;;33.43;15.03;;;10.30;79.10;;;;;;4950799;28;20304;-83
2021/12/20 08:30:02;;;;;;;39.30;15.07;;;10.30;79.10;;;;;;4950688;28;20810;-83
2021/12/20 08:32:29;;;;;;;37.93;17.40;;;10.30;79.20;;;;;;4950900;28;20256;-87
2021/12/20 08:34:56;;;;;;;33.37;13.77;;;10.30;79.10;;;;;;4942906;28;20318;-84
2021/12/20 08:37:24;;;;;;;28.97;13.60;;;10.30;79.00;;;;;;4949473;28;20237;-84
2021/12/20 08:39:52;;;;;;;28.67;16.20;;;10.30;78.90;;;;;;4932915;28;20231;-84
2021/12/20 08:42:19;;;;;;;31.97;15.77;;;10.30;79.10;;;;;;4935161;29;20767;-83
2021/12/20 08:44:46;;;;;;;49.70;17.20;;;10.30;79.20;;;;;;4949967;28;20221;-86
2021/12/20 08:47:13;;;;;;;31.90;17.40;;;10.30;79.30;;;;;;4950446;28;20738;-87
2021/12/20 08:49:40;;;;;;;29.70;15.63;;;10.30;79.40;;;;;;4950486;28;20313;-83
2021/12/20 08:52:10;;;;;;;36.80;16.27;;;10.30;79.20;;;;;;4950260;28;20745;-83
2021/12/20 08:54:39;;;;;;;35.53;17.37;;;10.30;79.10;;;;;;4950486;28;20243;-84
2021/12/20 08:57:07;;;;;;;50.17;18.60;;;10.30;79.10;;;;;;4950763;28;20326;-85
2021/12/20 08:59:35;;;;;;;32.63;14.83;;;10.30;79.10;;;;;;4950680;28;20233;-87
2021/12/20 09:02:06;;;;;;;33.30;17.90;;;10.30;79.10;;;;;;4951080;28;20301;-83
2021/12/20 09:04:33;;;;;;;37.87;17.27;;;10.40;79.10;;;;;;4950458;28;20207;-83
2021/12/20 09:07:00;;;;;;;38.10;16.43;;;10.30;78.90;;;;;;4950139;28;20210;-83
2021/12/20 09:09:27;;;;;;;27.17;17.50;;;10.40;79.10;;;;;;4948581;28;20633;-86
2021/12/20 09:11:56;;;;;;;30.03;16.00;;;10.40;79.00;;;;;;4949913;28;20314;-83
2021/12/20 09:14:23;;;;;;;35.87;17.87;;;10.40;78.90;;;;;;4950485;28;20254;-83
2021/12/20 09:16:49;;;;;;;43.77;17.83;;;10.40;78.80;;;;;;4949557;28;20298;-87
2021/12/20 09:19:16;;;;;;;55.53;18.33;;;10.40;78.70;;;;;;4938728;28;20230;-83
2021/12/20 09:21:43;;;;;;;45.83;14.53;;;10.40;78.80;;;;;;4930646;28;20295;-87
2021/12/20 09:24:10;;;;;;;38.17;15.27;;;10.40;78.80;;;;;;4945890;28;20210;-91
2021/12/20 09:26:38;;;;;;;34.70;16.83;;;10.40;78.70;;;;;;4949995;28;20299;-82
2021/12/20 09:29:06;;;;;;;46.53;16.27;;;10.40;78.50;;;;;;4932690;28;20232;-83
2021/12/20 09:31:33;;;;;;;40.33;16.17;;;10.40;78.40;;;;;;4930934;29;20315;-86
2021/12/20 09:34:00;;;;;;;32.97;17.70;;;10.40;78.50;;;;;;4931471;29;20310;-83
2021/12/20 09:36:29;;;;;;;39.27;15.40;;;10.40;78.50;;;;;;4930870;29;20858;-86
2021/12/20 09:38:57;;;;;;;38.87;14.00;;;10.40;78.40;;;;;;4930514;29;20236;-82
2021/12/20 09:41:59;;;;;;;25.73;13.93;;;10.40;78.40;;;;;;4931043;29;20220;-84
2021/12/20 09:44:22;;;;;;;29.27;16.90;;;10.40;78.20;;;;;;4946187;28;20212;-83
2021/12/20 09:46:49;;;;;;;44.10;15.73;;;10.50;78.10;;;;;;4950599;28;20204;-85
2021/12/20 09:49:19;;;;;;;37.90;14.33;;;10.50;78.00;;;;;;4953616;28;20238;-87
2021/12/20 09:51:46;;;;;;;32.70;12.93;;;10.50;77.80;;;;;;4954065;28;20306;-85
2021/12/20 09:54:13;;;;;;;33.17;15.57;;;10.50;77.70;;;;;;4954043;28;20290;-85
2021/12/20 09:56:42;;;;;;;33.13;15.70;;;10.50;77.60;;;;;;4954122;28;20698;-87
2021/12/20 09:59:12;;;;;;;36.07;14.07;;;10.50;77.70;;;;;;4953820;28;20330;-85
2021/12/20 10:01:41;;;;;;;40.23;14.00;;;10.50;77.50;;;;;;4953371;28;20583;-81
2021/12/20 10:04:08;;;;;;;41.73;12.97;;;10.50;77.20;;;;;;4953159;28;20285;-82
2021/12/20 10:06:35;;;;;;;39.33;15.03;;;10.60;77.30;;;;;;4952624;28;20275;-82
2021/12/20 10:09:10;;;;;;;53.57;16.80;;;10.50;77.00;;;;;;4952839;28;20321;-80
2021/12/20 10:11:38;;;;;;;36.37;15.73;;;10.60;77.00;;;;;;4952651;28;20237;-84
2021/12/20 10:14:07;;;;;;;42.90;17.67;;;10.60;77.10;;;;;;4939903;28;20223;-84
2021/12/20 10:16:35;;;;;;;35.57;16.60;;;10.60;76.80;;;;;;4933742;29;20295;-85
2021/12/20 10:19:04;;;;;;;36.90;14.03;;;10.60;76.80;;;;;;4945134;28;20239;-85
2021/12/20 10:21:36;;;;;;;32.37;13.13;;;10.60;76.60;;;;;;4951795;28;20291;-82
2021/12/20 10:24:06;;;;;;;39.67;16.03;;;10.60;76.50;;;;;;4953555;28;20683;-85
2021/12/20 10:26:41;;;;;;;35.70;14.03;;;10.60;76.60;;;;;;4952833;28;20338;-85
2021/12/20 10:29:18;;;;;;;32.60;14.33;;;10.60;76.00;;;;;;4952879;28;20321;-83
2021/12/20 10:31:46;;;;;;;45.70;15.67;;;10.60;75.50;;;;;;4951148;28;20211;-82
2021/12/20 10:34:16;;;;;;;35.43;16.00;;;10.60;76.00;;;;;;4934467;29;20676;-86
2021/12/20 10:36:51;;;;;;;42.50;13.83;;;10.60;76.10;;;;;;4933591;29;20213;-81
2021/12/20 10:39:32;;;;;;;38.03;13.70;;;10.60;75.80;;;;;;4939703;28;20337;-81
2021/12/20 10:42:13;;;;;;;43.87;14.53;;;10.60;76.10;;;;;;4952301;28;20653;-82
2021/12/20 10:44:40;;;;;;;36.13;12.80;;;10.70;75.80;;;;;;4952696;28;20323;-82
2021/12/20 10:47:07;;;;;;;39.27;13.60;;;10.70;75.80;;;;;;4952327;28;20795;-83
2021/12/20 10:49:35;;;;;;;30.87;13.03;;;10.70;75.70;;;;;;4952653;28;20239;-84
2021/12/20 10:52:03;;;;;;;53.53;15.40;;;10.70;75.60;;;;;;4952545;28;20286;-83
2021/12/20 10:54:32;;;;;;;30.47;14.37;;;10.70;75.70;;;;;;4952500;28;20262;-85
2021/12/20 10:57:01;;;;;;;45.53;14.00;;;10.80;75.80;;;;;;4952340;28;20302;-83
2021/12/20 10:59:30;;;;;;;34.17;12.70;;;10.70;75.20;;;;;;4951131;28;20251;-82
2021/12/20 11:04:48;;;;;;;43.37;13.03;;;10.80;75.50;;;;;;4930083;28;20693;-82
2021/12/20 11:10:06;;;;;;;35.90;14.07;;;10.80;75.30;;;;;;4959916;28;20234;-83
2021/12/20 11:12:34;;;;;;;41.17;12.60;;;10.80;75.20;;;;;;4959268;28;20214;-83
2021/12/20 11:15:03;;;;;;;52.00;14.03;;;10.90;75.40;;;;;;4959014;28;20207;-85
2021/12/20 11:17:33;;;;;;;38.70;13.27;;;10.80;75.10;;;;;;4959708;28;20822;-83
2021/12/20 11:20:02;;;;;;;38.77;12.50;;;10.90;74.70;;;;;;4967412;28;20227;-83
2021/12/20 11:22:31;;;;;;;57.03;15.77;;;10.80;74.50;;;;;;4951091;28;20283;-83
2021/12/20 11:25:00;;;;;;;35.17;13.97;;;10.90;74.30;;;;;;4944264;28;20216;-83
2021/12/20 11:27:30;;;;;;;56.03;15.20;;;10.90;74.70;;;;;;4951411;28;20210;-86
2021/12/20 11:29:58;;;;;;;49.80;13.10;;;10.90;74.90;;;;;;4943786;28;20227;-89
2021/12/20 11:32:26;;;;;;;61.60;14.77;;;10.90;74.30;;;;;;4939463;29;21082;-85
2021/12/20 11:34:54;;;;;;;39.27;12.53;;;10.90;74.30;;;;;;4940942;28;20200;-86
2021/12/20 11:37:25;;;;;;;38.67;12.23;;;11.00;74.50;;;;;;4942388;28;20203;-85
2021/12/20 11:39:52;;;;;;;32.50;10.87;;;11.00;73.90;;;;;;4970788;28;20219;-81
2021/12/20 11:42:20;;;;;;;44.30;11.80;;;10.90;73.40;;;;;;4967853;28;20210;-88
2021/12/20 11:44:49;;;;;;;40.07;13.97;;;11.00;73.70;;;;;;4970850;28;20285;-85
2021/12/20 11:47:23;;;;;;;38.10;13.67;;;11.00;73.50;;;;;;4970675;28;21059;-87
2021/12/20 11:49:58;;;;;;;41.17;12.60;;;11.00;72.80;;;;;;4970502;28;20233;-86
2021/12/20 11:52:31;;;;;;;33.83;15.10;;;11.00;72.10;;;;;;4970254;28;20289;-85
2021/12/20 11:54:58;;;;;;;42.23;15.77;;;11.00;72.80;;;;;;4970205;28;20214;-88
2021/12/20 11:57:44;;;;;;;36.43;14.07;;;11.00;72.80;;;;;;4970256;28;20252;-90
2021/12/20 12:00:32;;;;;;;61.73;13.50;;;11.00;72.10;;;;;;4970301;28;20317;-89
2021/12/20 12:03:02;;;;;;;39.70;14.37;;;11.00;71.50;;;;;;4970630;28;20265;-87
2021/12/20 12:05:41;;;;;;;35.00;12.83;;;11.00;71.80;;;;;;4970199;28;20270;-86
2021/12/20 12:08:33;;;;;;;30.70;13.63;;;11.00;71.80;;;;;;4969798;28;20995;-88
2021/12/20 12:11:17;;;;;;;44.13;12.20;;;10.90;71.40;;;;;;4961942;28;20628;-86
2021/12/20 12:14:19;;;;;;;28.80;13.37;;;11.00;72.10;;;;;;4950417;28;20294;-86
2021/12/20 12:17:00;;;;;;;42.20;12.80;;;11.00;71.50;;;;;;4951077;28;20210;-86
2021/12/20 12:19:42;;;;;;;33.40;12.43;;;11.00;71.40;;;;;;4931912;28;20246;-88
2021/12/20 12:22:34;;;;;;;43.77;13.17;;;11.00;71.40;;;;;;4930852;28;20240;-85
2021/12/20 12:25:04;;;;;;;40.67;13.97;;;11.00;71.50;;;;;;4938005;28;20203;-87
2021/12/20 12:27:33;;;;;;;40.33;14.13;;;11.00;72.10;;;;;;4940615;28;20291;-85
2021/12/20 12:30:28;;;;;;;90.50;18.23;;;11.00;72.30;;;;;;4937961;28;20234;-85
2021/12/20 12:33:27;;;;;;;51.23;13.53;;;10.90;70.30;;;;;;4957421;28;20225;-87
2021/12/20 12:35:57;;;;;;;45.13;11.23;;;11.00;71.20;;;;;;4957843;28;20231;-85
2021/12/20 12:38:27;;;;;;;41.07;11.10;;;11.00;71.90;;;;;;4958164;28;20310;-88
2021/12/20 12:41:16;;;;;;;39.93;11.87;;;11.00;72.10;;;;;;4953810;28;20211;-85
2021/12/20 12:44:19;;;;;;;44.77;12.20;;;11.00;71.60;;;;;;4957384;28;20219;-85
2021/12/20 12:47:08;;;;;;;39.00;14.07;;;11.00;70.60;;;;;;4917831;29;20239;-87
2021/12/20 12:49:50;;;;;;;43.10;12.90;;;11.00;71.50;;;;;;4936878;28;20236;-85
2021/12/20 12:52:37;;;;;;;38.67;11.70;;;11.00;71.00;;;;;;4949943;28;20298;-86
2021/12/20 12:55:12;;;;;;;71.77;15.20;;;11.00;71.00;;;;;;4940500;28;20779;-88